Time;durP1;ratioP1;P1;durP2;ratioP2;P2;SDS_P1;SDS_P2;PMS_P1;PMS_P2;Temp;Humidity;BMP_temperature;BMP_pressure;BME280_temperature;BME280_humidity;BME280_pressure;Samples;Min_cycle;Max_cycle;Signal;HPM_P1;HPM_P2
2023/11/08 00:01:23;;;;;;;8.20;2.53;;;6.80;99.90;;;;;;5033715;28;20041;-40
2023/11/08 00:03:50;;;;;;;6.43;1.92;;;6.80;99.90;;;;;;5032245;28;20045;-37
2023/11/08 00:06:17;;;;;;;4.78;2.22;;;6.90;99.90;;;;;;5032690;28;20461;-41
2023/11/08 00:08:45;;;;;;;6.53;1.98;;;6.90;99.90;;;;;;5031645;28;20049;-42
2023/11/08 00:11:12;;;;;;;8.43;2.03;;;6.80;99.90;;;;;;5033184;28;20048;-40
2023/11/08 00:13:39;;;;;;;11.25;2.50;;;6.90;99.90;;;;;;5031219;28;20045;-39
2023/11/08 00:16:06;;;;;;;6.38;2.20;;;6.90;99.90;;;;;;5032508;28;20064;-40
2023/11/08 00:18:34;;;;;;;6.45;2.10;;;6.90;99.90;;;;;;5032192;28;20092;-42
2023/11/08 00:21:01;;;;;;;4.25;1.90;;;6.90;99.90;;;;;;5029947;28;20037;-40
2023/11/08 00:23:29;;;;;;;5.95;2.17;;;7.00;99.90;;;;;;5027955;28;20533;-43
2023/11/08 00:25:56;;;;;;;6.45;2.25;;;7.00;99.90;;;;;;5032784;28;20042;-40
2023/11/08 00:28:23;;;;;;;4.47;2.10;;;7.00;99.90;;;;;;5033859;28;20068;-39
2023/11/08 00:30:52;;;;;;;5.32;2.35;;;6.90;99.90;;;;;;5029795;28;20049;-40
2023/11/08 00:33:19;;;;;;;4.57;2.03;;;7.00;99.90;;;;;;5031870;28;20095;-39
2023/11/08 00:35:46;;;;;;;6.00;2.33;;;7.00;99.90;;;;;;5031962;28;20057;-44
2023/11/08 00:38:13;;;;;;;4.75;1.77;;;7.10;99.90;;;;;;5032192;28;20563;-39
2023/11/08 00:40:40;;;;;;;6.88;2.03;;;7.10;99.90;;;;;;5032764;28;20042;-42
2023/11/08 00:43:08;;;;;;;5.35;2.47;;;7.00;99.90;;;;;;5030950;28;20494;-38
2023/11/08 00:45:35;;;;;;;5.25;2.13;;;7.10;99.90;;;;;;5032532;28;20425;-42
2023/11/08 00:48:02;;;;;;;11.95;2.28;;;7.10;99.90;;;;;;5033923;28;20065;-39
2023/11/08 00:50:29;;;;;;;5.25;2.13;;;7.10;99.90;;;;;;5032895;28;20052;-41
2023/11/08 00:52:58;;;;;;;4.63;2.00;;;7.10;99.90;;;;;;5036300;28;20041;-39
2023/11/08 00:55:25;;;;;;;8.90;2.03;;;7.10;99.90;;;;;;5040403;28;20076;-42
2023/11/08 00:57:52;;;;;;;3.63;1.75;;;7.10;99.90;;;;;;5042992;28;20057;-41
2023/11/08 01:00:20;;;;;;;4.25;1.80;;;7.10;99.90;;;;;;5034124;28;20155;-39
2023/11/08 01:02:47;;;;;;;8.90;2.10;;;7.10;99.90;;;;;;5031703;28;20518;-39
2023/11/08 01:05:15;;;;;;;4.88;1.90;;;7.20;99.90;;;;;;5026240;28;20064;-38
2023/11/08 01:07:42;;;;;;;7.35;2.30;;;7.20;99.90;;;;;;5031892;28;20095;-42
2023/11/08 01:10:10;;;;;;;6.07;2.00;;;7.20;99.90;;;;;;5033240;28;20107;-40
2023/11/08 01:12:38;;;;;;;5.93;2.17;;;7.20;99.90;;;;;;5032485;28;20053;-41
2023/11/08 01:15:06;;;;;;;7.57;1.92;;;7.20;99.90;;;;;;5039795;28;20073;-42
2023/11/08 01:17:33;;;;;;;5.60;2.25;;;7.20;99.90;;;;;;5043960;28;20048;-42
2023/11/08 01:20:02;;;;;;;4.85;2.00;;;7.20;99.90;;;;;;5036323;28;20116;-40
2023/11/08 01:22:30;;;;;;;5.28;2.10;;;7.30;99.90;;;;;;5028147;28;20335;-41
2023/11/08 01:24:57;;;;;;;4.25;1.63;;;7.30;99.90;;;;;;5031561;28;20041;-41
2023/11/08 01:27:24;;;;;;;4.50;2.00;;;7.30;99.90;;;;;;5031649;28;20095;-42
2023/11/08 01:29:51;;;;;;;5.00;2.00;;;7.30;99.90;;;;;;5034256;28;20046;-40
2023/11/08 01:32:18;;;;;;;5.18;2.00;;;7.30;99.90;;;;;;5032778;28;20037;-42
2023/11/08 01:34:45;;;;;;;7.78;2.70;;;7.30;99.90;;;;;;5031758;28;20056;-42
2023/11/08 01:37:12;;;;;;;9.10;2.60;;;7.30;99.90;;;;;;5036072;28;20076;-42
2023/11/08 01:39:39;;;;;;;6.47;2.00;;;7.20;99.90;;;;;;5031414;28;20053;-40
2023/11/08 01:42:06;;;;;;;5.93;1.83;;;7.20;99.90;;;;;;5029430;28;20050;-40
2023/11/08 01:44:34;;;;;;;7.75;2.05;;;7.10;99.90;;;;;;5032760;28;20099;-39
2023/11/08 01:47:02;;;;;;;9.13;2.53;;;7.00;99.90;;;;;;5031004;28;20037;-40
2023/11/08 01:49:30;;;;;;;6.00;1.90;;;7.00;99.90;;;;;;5033342;28;20054;-40
2023/11/08 01:51:59;;;;;;;5.68;2.00;;;7.00;99.90;;;;;;5032114;28;20106;-39
2023/11/08 01:54:27;;;;;;;4.78;2.00;;;6.90;99.90;;;;;;5042310;28;20085;-43
2023/11/08 01:56:55;;;;;;;5.43;2.25;;;6.90;99.90;;;;;;5038505;28;20133;-42
2023/11/08 01:59:24;;;;;;;7.85;2.47;;;6.80;99.90;;;;;;5027999;28;20042;-40
2023/11/08 02:01:51;;;;;;;5.35;2.03;;;6.90;99.90;;;;;;5023672;28;20042;-41
2023/11/08 02:04:19;;;;;;;4.72;2.00;;;6.80;99.90;;;;;;5027858;28;20049;-39
2023/11/08 02:06:46;;;;;;;6.97;1.83;;;6.80;99.90;;;;;;5035344;28;20061;-39
2023/11/08 02:09:14;;;;;;;4.53;2.10;;;6.90;99.90;;;;;;5041989;28;20041;-40
2023/11/08 02:11:41;;;;;;;7.28;2.10;;;6.90;99.90;;;;;;5038449;28;20049;-40
2023/11/08 02:14:08;;;;;;;5.68;1.90;;;7.00;99.90;;;;;;5027192;28;20049;-40
2023/11/08 02:16:36;;;;;;;8.95;2.05;;;7.00;99.90;;;;;;5028967;28;20048;-41
2023/11/08 02:19:05;;;;;;;4.90;2.33;;;7.10;99.90;;;;;;5025025;28;20050;-41
2023/11/08 02:21:33;;;;;;;6.72;2.15;;;7.10;99.90;;;;;;5029864;28;20285;-42
2023/11/08 02:24:29;;;;;;;3.28;1.83;;;7.10;99.90;;;;;;5027418;28;20049;-40
2023/11/08 02:26:56;;;;;;;6.68;2.10;;;7.10;99.90;;;;;;5019621;28;20056;-40
2023/11/08 02:29:23;;;;;;;5.97;1.88;;;7.10;99.90;;;;;;5033783;28;20170;-42
2023/11/08 02:31:51;;;;;;;5.70;1.98;;;7.10;99.90;;;;;;5038724;28;20041;-39
2023/11/08 02:34:18;;;;;;;5.30;1.83;;;7.10;99.90;;;;;;5030809;28;20075;-42
2023/11/08 02:36:46;;;;;;;5.57;1.90;;;7.10;99.90;;;;;;5030072;28;20060;-37
2023/11/08 02:39:14;;;;;;;4.93;2.00;;;7.10;99.90;;;;;;5024617;28;20041;-39
2023/11/08 02:41:42;;;;;;;3.08;1.92;;;7.10;99.90;;;;;;5025552;28;20041;-39
2023/11/08 02:44:09;;;;;;;9.00;2.03;;;7.10;99.90;;;;;;5028061;28;20037;-42
2023/11/08 02:46:36;;;;;;;3.55;1.70;;;7.10;99.90;;;;;;5028870;28;20136;-41
2023/11/08 02:49:04;;;;;;;9.02;2.20;;;7.10;99.90;;;;;;5027033;28;20050;-42
2023/11/08 02:51:31;;;;;;;3.17;1.88;;;7.10;99.90;;;;;;5027124;28;20504;-42
2023/11/08 02:53:58;;;;;;;4.80;1.80;;;7.00;99.90;;;;;;5030498;28;20584;-40
2023/11/08 02:56:26;;;;;;;4.25;1.90;;;7.00;99.90;;;;;;5035783;28;20045;-44
2023/11/08 02:58:53;;;;;;;2.72;1.60;;;7.00;99.90;;;;;;5038514;28;20172;-41
2023/11/08 03:01:23;;;;;;;4.03;1.67;;;7.00;99.90;;;;;;5032421;28;20107;-40
2023/11/08 03:03:50;;;;;;;5.22;1.90;;;7.00;99.90;;;;;;5029851;28;20054;-37
2023/11/08 03:06:20;;;;;;;6.47;1.88;;;7.00;99.90;;;;;;5026408;28;20091;-41
2023/11/08 03:08:48;;;;;;;5.00;1.90;;;7.00;99.90;;;;;;5029852;28;20071;-38
2023/11/08 03:11:15;;;;;;;6.28;1.70;;;6.90;99.90;;;;;;5028374;28;20141;-40
2023/11/08 03:13:42;;;;;;;5.35;1.55;;;6.90;99.90;;;;;;5034894;28;20056;-39
2023/11/08 03:16:09;;;;;;;4.10;1.83;;;6.80;99.90;;;;;;5042537;28;20097;-39
2023/11/08 03:18:36;;;;;;;5.03;1.80;;;6.80;99.90;;;;;;5030109;28;20049;-40
2023/11/08 03:21:03;;;;;;;5.85;1.75;;;6.80;99.90;;;;;;5029365;28;20139;-42
2023/11/08 03:23:30;;;;;;;4.80;1.88;;;6.80;99.90;;;;;;5022125;28;20068;-39
2023/11/08 03:25:57;;;;;;;7.90;1.77;;;6.80;99.90;;;;;;5026554;28;20043;-40
2023/11/08 03:28:24;;;;;;;3.90;1.75;;;6.80;99.90;;;;;;5027129;28;20037;-41
2023/11/08 03:30:51;;;;;;;3.40;1.85;;;6.80;99.90;;;;;;5028816;28;20386;-42
2023/11/08 03:33:18;;;;;;;5.03;1.75;;;6.80;99.90;;;;;;5028697;28;20132;-41
2023/11/08 03:35:47;;;;;;;6.32;2.58;;;6.70;99.90;;;;;;5030818;28;20049;-42
2023/11/08 03:38:14;;;;;;;3.70;1.98;;;6.60;99.90;;;;;;5031035;28;20037;-38
2023/11/08 03:40:42;;;;;;;3.60;1.92;;;6.60;99.90;;;;;;5030370;28;20056;-41
2023/11/08 03:43:11;;;;;;;3.35;1.80;;;6.60;99.90;;;;;;5025819;28;20053;-40
2023/11/08 03:45:38;;;;;;;7.95;2.42;;;6.60;99.90;;;;;;5041864;28;20072;-41
2023/11/08 03:48:05;;;;;;;7.03;2.03;;;6.50;99.90;;;;;;5041938;28;20414;-41
2023/11/08 03:50:32;;;;;;;6.55;1.65;;;6.50;99.90;;;;;;5043498;28;20113;-41
2023/11/08 03:53:00;;;;;;;5.65;2.05;;;6.50;99.90;;;;;;5040042;28;20045;-40
2023/11/08 03:55:27;;;;;;;3.58;1.90;;;6.40;99.90;;;;;;5044460;28;20053;-41
2023/11/08 03:57:55;;;;;;;6.13;2.08;;;6.40;99.90;;;;;;5043275;28;20072;-41
2023/11/08 04:00:24;;;;;;;7.28;2.22;;;6.40;99.90;;;;;;5045572;28;20049;-42
2023/11/08 04:02:51;;;;;;;4.55;1.90;;;6.30;99.90;;;;;;5042827;28;20037;-41
2023/11/08 04:05:18;;;;;;;6.10;2.28;;;6.30;99.90;;;;;;5042412;28;20057;-40
2023/11/08 04:07:46;;;;;;;6.68;2.38;;;6.30;99.90;;;;;;5043362;28;20068;-42
2023/11/08 04:10:14;;;;;;;4.78;2.38;;;6.30;99.90;;;;;;5040005;28;20045;-40
2023/11/08 04:12:41;;;;;;;6.43;2.20;;;6.20;99.90;;;;;;5034584;28;20099;-42
2023/11/08 04:15:08;;;;;;;6.68;2.15;;;6.30;99.90;;;;;;5030884;28;20121;-41
2023/11/08 04:17:35;;;;;;;6.20;2.28;;;6.30;99.90;;;;;;5032996;28;20053;-41
2023/11/08 04:20:03;;;;;;;5.30;2.20;;;6.20;99.90;;;;;;5032044;28;20069;-39
2023/11/08 04:22:30;;;;;;;5.70;2.10;;;6.20;99.90;;;;;;5037461;28;20048;-38
2023/11/08 04:24:57;;;;;;;6.22;2.22;;;6.20;99.90;;;;;;5035395;28;20054;-41
2023/11/08 04:27:24;;;;;;;7.57;2.30;;;6.20;99.90;;;;;;5044874;28;20044;-41
2023/11/08 04:29:51;;;;;;;4.50;1.98;;;6.20;99.90;;;;;;5040374;28;20068;-41
2023/11/08 04:32:18;;;;;;;3.88;2.05;;;6.20;99.90;;;;;;5042024;28;20052;-39
2023/11/08 04:34:48;;;;;;;5.20;2.00;;;6.20;99.90;;;;;;5037991;28;20044;-42
2023/11/08 04:37:15;;;;;;;5.57;2.20;;;6.10;99.90;;;;;;5032515;28;20072;-39
2023/11/08 04:39:47;;;;;;;4.82;2.40;;;6.20;99.90;;;;;;5033021;28;20494;-41
2023/11/08 04:42:15;;;;;;;3.63;1.95;;;6.20;99.90;;;;;;5032003;28;20041;-41
2023/11/08 04:44:47;;;;;;;6.25;2.17;;;6.20;99.90;;;;;;5030608;28;20041;-41
2023/11/08 04:47:18;;;;;;;7.32;2.30;;;6.20;99.90;;;;;;5044756;28;20046;-42
2023/11/08 04:49:47;;;;;;;5.17;2.17;;;6.20;99.90;;;;;;5045190;28;20470;-40
2023/11/08 04:52:15;;;;;;;5.20;1.92;;;6.10;99.90;;;;;;5042150;28;20054;-39
2023/11/08 04:54:45;;;;;;;5.00;2.30;;;6.10;99.90;;;;;;5035897;28;20069;-40
2023/11/08 04:57:21;;;;;;;5.15;1.90;;;6.10;99.90;;;;;;5038308;28;20220;-42
2023/11/08 04:59:49;;;;;;;7.53;2.10;;;6.10;99.90;;;;;;5043600;28;20080;-43
2023/11/08 05:02:18;;;;;;;5.00;2.10;;;6.00;99.90;;;;;;5039294;28;20057;-40
2023/11/08 05:04:47;;;;;;;4.30;2.15;;;6.00;99.90;;;;;;5041228;28;20061;-42
2023/11/08 05:07:17;;;;;;;7.38;2.30;;;6.00;99.90;;;;;;5033777;28;20129;-42
2023/11/08 05:09:45;;;;;;;5.40;2.20;;;6.00;99.90;;;;;;5033300;28;20041;-40
2023/11/08 05:12:12;;;;;;;5.18;2.63;;;6.00;99.90;;;;;;5032420;28;20056;-42
2023/11/08 05:14:39;;;;;;;8.48;2.50;;;5.90;99.90;;;;;;5031939;28;20448;-41
2023/11/08 05:17:07;;;;;;;5.85;2.30;;;5.90;99.90;;;;;;5026643;28;20052;-41
2023/11/08 05:19:34;;;;;;;3.75;1.95;;;5.80;99.90;;;;;;5032563;28;20107;-39
2023/11/08 05:22:01;;;;;;;6.28;2.10;;;5.80;99.90;;;;;;5039816;28;20041;-38
2023/11/08 05:24:30;;;;;;;5.65;2.40;;;5.80;99.90;;;;;;5032336;28;20498;-40
2023/11/08 05:26:57;;;;;;;6.57;2.13;;;5.90;99.90;;;;;;5032775;28;20103;-41
2023/11/08 05:29:25;;;;;;;6.20;2.20;;;5.80;99.90;;;;;;5031296;28;20045;-41
2023/11/08 05:31:51;;;;;;;6.35;2.65;;;5.80;99.90;;;;;;5032316;28;20055;-37
2023/11/08 05:34:20;;;;;;;5.75;2.08;;;5.80;99.90;;;;;;5031886;28;20037;-40
2023/11/08 05:36:47;;;;;;;6.65;2.20;;;5.90;99.90;;;;;;5033143;28;20062;-41
2023/11/08 05:39:21;;;;;;;5.32;2.10;;;5.90;99.90;;;;;;5029407;28;20099;-42
2023/11/08 05:41:52;;;;;;;6.93;2.30;;;6.00;99.90;;;;;;5027523;28;20038;-39
2023/11/08 05:44:20;;;;;;;4.35;2.53;;;6.00;99.90;;;;;;5024875;28;20099;-39
2023/11/08 05:46:48;;;;;;;5.63;2.03;;;6.10;99.90;;;;;;5031721;28;20306;-40
2023/11/08 05:49:16;;;;;;;4.78;1.90;;;6.10;99.90;;;;;;5028792;28;20506;-38
2023/11/08 05:51:43;;;;;;;5.85;2.55;;;6.20;99.90;;;;;;5031379;28;20056;-42
2023/11/08 05:54:10;;;;;;;8.43;2.80;;;6.20;99.90;;;;;;5035028;28;20553;-40
2023/11/08 05:56:37;;;;;;;4.75;2.10;;;6.20;99.90;;;;;;5038121;28;20045;-41
2023/11/08 05:59:06;;;;;;;7.80;2.88;;;6.20;99.90;;;;;;5040435;28;20492;-42
2023/11/08 06:01:33;;;;;;;8.05;2.20;;;6.20;99.90;;;;;;5040195;28;20033;-42
2023/11/08 06:04:00;;;;;;;5.63;2.45;;;6.30;99.90;;;;;;5040235;28;20065;-42
2023/11/08 06:06:27;;;;;;;5.60;2.65;;;6.30;99.90;;;;;;5037196;28;20048;-41
2023/11/08 06:08:55;;;;;;;5.70;2.75;;;6.30;99.90;;;;;;5030422;28;20045;-42
2023/11/08 06:11:22;;;;;;;5.10;2.38;;;6.30;99.90;;;;;;5029325;28;20069;-43
2023/11/08 06:13:49;;;;;;;6.22;2.28;;;6.30;99.90;;;;;;5031412;28;20041;-42
2023/11/08 06:16:16;;;;;;;6.57;2.45;;;6.30;99.90;;;;;;5032117;28;20060;-41
2023/11/08 06:18:43;;;;;;;9.65;2.70;;;6.30;99.90;;;;;;5038745;28;20053;-40
2023/11/08 06:21:14;;;;;;;7.50;2.60;;;6.30;99.90;;;;;;5031027;28;20049;-41
2023/11/08 06:23:44;;;;;;;6.47;2.38;;;6.40;99.90;;;;;;5030465;28;20045;-41
2023/11/08 06:26:15;;;;;;;7.80;2.50;;;6.40;99.90;;;;;;5030648;28;20051;-40
2023/11/08 06:28:43;;;;;;;10.60;2.55;;;6.50;99.90;;;;;;5029330;28;20042;-40
2023/11/08 06:31:10;;;;;;;6.35;2.47;;;6.40;99.90;;;;;;5030415;28;20072;-39
2023/11/08 06:33:40;;;;;;;4.38;2.10;;;6.40;99.90;;;;;;5030101;28;20099;-39
2023/11/08 06:36:08;;;;;;;5.32;2.30;;;6.40;99.90;;;;;;5031139;28;20117;-39
2023/11/08 06:38:36;;;;;;;7.15;2.13;;;6.50;99.90;;;;;;5028769;28;20041;-40
2023/11/08 06:41:03;;;;;;;3.72;1.85;;;6.50;99.90;;;;;;5030543;28;20613;-43
2023/11/08 06:43:31;;;;;;;4.55;2.05;;;6.60;99.90;;;;;;5030620;28;20057;-40
2023/11/08 06:45:58;;;;;;;4.68;1.85;;;6.60;99.90;;;;;;5030596;28;20053;-37
2023/11/08 06:48:25;;;;;;;4.68;2.10;;;6.60;99.90;;;;;;5031567;28;20158;-42
2023/11/08 06:50:52;;;;;;;8.43;2.47;;;6.60;99.90;;;;;;5026630;28;20093;-40
2023/11/08 06:53:19;;;;;;;6.10;2.20;;;6.70;99.90;;;;;;5024209;28;20544;-42
2023/11/08 06:55:46;;;;;;;5.93;2.10;;;6.80;99.90;;;;;;5029015;28;20087;-40
2023/11/08 06:58:14;;;;;;;5.05;2.10;;;6.70;99.90;;;;;;5030029;28;20529;-44
2023/11/08 07:00:41;;;;;;;5.05;2.25;;;6.80;99.90;;;;;;5030347;28;20045;-43
2023/11/08 07:03:09;;;;;;;5.53;2.42;;;6.80;99.90;;;;;;5028936;28;20041;-41
2023/11/08 07:05:36;;;;;;;4.30;2.30;;;6.80;99.90;;;;;;5035064;28;20065;-41
2023/11/08 07:08:07;;;;;;;5.47;2.35;;;6.90;99.90;;;;;;5037936;28;20041;-42
2023/11/08 07:10:35;;;;;;;4.40;2.03;;;6.90;99.90;;;;;;5038226;28;20052;-41
2023/11/08 07:13:02;;;;;;;7.53;2.45;;;6.90;99.90;;;;;;5027939;28;20045;-43
2023/11/08 07:15:30;;;;;;;6.70;2.10;;;6.90;99.90;;;;;;5029964;28;20041;-40
2023/11/08 07:17:57;;;;;;;3.97;1.90;;;7.00;99.90;;;;;;5029463;28;20103;-44
2023/11/08 07:20:25;;;;;;;6.88;2.42;;;7.00;99.90;;;;;;5025274;28;20046;-41
2023/11/08 07:22:52;;;;;;;8.57;3.20;;;7.10;99.90;;;;;;5030622;28;20046;-41
2023/11/08 07:25:19;;;;;;;7.30;2.55;;;7.10;99.90;;;;;;5026153;28;20049;-43
2023/11/08 07:27:46;;;;;;;9.02;2.10;;;7.20;99.90;;;;;;5029902;28;20076;-43
2023/11/08 07:30:14;;;;;;;8.68;2.53;;;7.20;99.90;;;;;;5031369;28;20053;-41
2023/11/08 07:32:45;;;;;;;13.75;5.63;;;7.30;99.90;;;;;;5029106;28;20046;-41
2023/11/08 07:35:13;;;;;;;4.75;1.92;;;7.30;99.90;;;;;;5032747;28;20115;-46
2023/11/08 07:37:40;;;;;;;5.82;2.20;;;7.40;99.90;;;;;;5031417;28;20049;-44
2023/11/08 07:40:14;;;;;;;9.25;2.75;;;7.40;99.90;;;;;;5033370;28;20099;-43
2023/11/08 07:42:41;;;;;;;5.22;2.03;;;7.50;99.90;;;;;;5032453;28;20100;-42
2023/11/08 07:45:09;;;;;;;7.00;2.38;;;7.60;99.90;;;;;;5033441;28;20489;-39
2023/11/08 07:47:36;;;;;;;5.70;2.03;;;7.60;99.90;;;;;;5032161;28;20529;-38
2023/11/08 07:50:05;;;;;;;6.95;2.20;;;7.60;99.90;;;;;;5028351;28;20041;-42
2023/11/08 07:52:33;;;;;;;4.47;2.33;;;7.60;99.90;;;;;;5029970;28;20599;-44
2023/11/08 07:55:00;;;;;;;5.97;2.40;;;7.60;99.90;;;;;;5033222;28;20057;-41
2023/11/08 07:57:27;;;;;;;5.15;2.25;;;7.70;99.90;;;;;;5032432;28;20048;-42
2023/11/08 07:59:55;;;;;;;3.85;2.20;;;7.60;99.90;;;;;;5032668;28;20061;-44
2023/11/08 08:02:23;;;;;;;4.30;1.83;;;7.70;99.90;;;;;;5031716;28;20131;-41
2023/11/08 08:04:50;;;;;;;4.93;2.17;;;7.70;99.90;;;;;;5034213;28;20415;-43
2023/11/08 08:07:17;;;;;;;5.13;2.00;;;7.80;99.90;;;;;;5032718;28;20051;-42
2023/11/08 08:09:44;;;;;;;6.75;2.35;;;7.70;99.90;;;;;;5037919;28;20045;-42
2023/11/08 08:12:12;;;;;;;3.70;2.05;;;7.70;99.90;;;;;;5032613;28;20136;-41
2023/11/08 08:14:39;;;;;;;11.85;5.63;;;7.70;99.90;;;;;;5026606;28;20117;-44
2023/11/08 08:17:06;;;;;;;4.65;2.28;;;7.80;99.90;;;;;;5030863;28;20041;-44
2023/11/08 08:19:33;;;;;;;3.15;1.90;;;7.90;99.90;;;;;;5024614;28;20049;-42
2023/11/08 08:22:01;;;;;;;8.57;2.22;;;7.90;99.90;;;;;;5031364;28;20120;-43
2023/11/08 08:24:29;;;;;;;5.70;2.33;;;8.00;99.90;;;;;;5028372;28;20124;-43
2023/11/08 08:26:56;;;;;;;6.35;2.00;;;8.00;99.90;;;;;;5028345;28;20586;-44
2023/11/08 08:29:26;;;;;;;6.88;1.98;;;8.20;99.90;;;;;;5027894;28;20049;-42
2023/11/08 08:31:53;;;;;;;8.32;2.10;;;8.20;99.90;;;;;;5024394;28;20395;-43
2023/11/08 08:34:20;;;;;;;5.57;2.40;;;8.30;99.90;;;;;;5021405;28;20052;-40
2023/11/08 08:36:57;;;;;;;5.68;2.10;;;8.30;99.90;;;;;;5025128;28;20044;-41
2023/11/08 08:39:27;;;;;;;6.63;2.35;;;8.30;99.90;;;;;;5034223;28;20144;-41
2023/11/08 08:41:56;;;;;;;9.38;2.42;;;8.30;99.90;;;;;;5031401;28;20053;-43
2023/11/08 08:44:24;;;;;;;5.25;2.10;;;8.30;99.90;;;;;;5034149;28;20442;-44
2023/11/08 08:46:52;;;;;;;5.22;2.03;;;8.30;99.90;;;;;;5030470;28;20124;-44
2023/11/08 08:49:20;;;;;;;4.88;2.13;;;8.30;99.90;;;;;;5039875;28;20115;-42
2023/11/08 08:51:49;;;;;;;4.57;2.17;;;8.50;99.90;;;;;;5036942;28;20041;-42
2023/11/08 08:54:20;;;;;;;4.57;2.28;;;8.60;99.90;;;;;;5033295;28;20053;-40
2023/11/08 08:56:48;;;;;;;3.97;2.38;;;8.70;99.90;;;;;;5032193;28;20127;-40
2023/11/08 08:59:15;;;;;;;9.68;2.80;;;8.80;99.90;;;;;;5032114;28;20045;-43
2023/11/08 09:01:43;;;;;;;6.90;2.40;;;8.90;99.90;;;;;;5030854;28;20060;-41
2023/11/08 09:04:10;;;;;;;8.32;2.58;;;8.90;99.90;;;;;;5029832;28;20061;-42
2023/11/08 09:06:38;;;;;;;7.68;2.45;;;9.00;99.90;;;;;;5030805;28;20045;-40
2023/11/08 09:09:11;;;;;;;11.43;2.60;;;9.00;99.90;;;;;;5031127;28;20041;-40
2023/11/08 09:11:42;;;;;;;4.75;2.55;;;9.10;99.90;;;;;;5027285;28;20049;-41
2023/11/08 09:14:10;;;;;;;5.90;2.53;;;9.10;99.90;;;;;;5030966;28;20051;-41
2023/11/08 09:16:37;;;;;;;5.05;2.38;;;9.10;99.90;;;;;;5029677;28;20046;-39
2023/11/08 09:19:09;;;;;;;7.28;2.40;;;9.30;99.90;;;;;;5032188;28;20099;-40
2023/11/08 09:21:37;;;;;;;8.93;2.25;;;9.50;99.90;;;;;;5028002;28;20136;-40
2023/11/08 09:24:06;;;;;;;6.80;2.33;;;9.60;99.90;;;;;;5032473;28;20041;-43
2023/11/08 09:26:39;;;;;;;5.97;2.53;;;9.90;99.90;;;;;;5033692;28;20536;-44
2023/11/08 09:29:07;;;;;;;7.90;2.40;;;10.30;99.90;;;;;;5030177;28;20049;-43
2023/11/08 09:31:34;;;;;;;4.68;2.30;;;10.60;99.90;;;;;;5031970;28;20048;-46
2023/11/08 09:34:03;;;;;;;5.03;2.10;;;10.80;99.90;;;;;;5033743;28;20061;-43
2023/11/08 09:36:30;;;;;;;8.02;2.28;;;11.20;99.90;;;;;;5038726;28;20045;-43
2023/11/08 09:38:58;;;;;;;4.22;2.03;;;11.10;99.90;;;;;;5031161;28;20057;-43
2023/11/08 09:41:27;;;;;;;4.68;2.17;;;11.00;99.90;;;;;;5030018;28;20041;-42
2023/11/08 09:43:56;;;;;;;4.55;2.20;;;11.00;99.90;;;;;;5028710;28;20042;-44
2023/11/08 09:46:26;;;;;;;5.93;2.40;;;10.90;99.90;;;;;;5033967;28;20045;-43
2023/11/08 09:48:56;;;;;;;6.20;2.30;;;10.90;99.90;;;;;;5034394;28;20124;-43
2023/11/08 09:51:24;;;;;;;5.45;2.40;;;10.80;99.90;;;;;;5033315;28;20577;-43
2023/11/08 09:53:51;;;;;;;6.28;2.25;;;10.70;99.90;;;;;;5034271;28;20139;-42
2023/11/08 09:56:20;;;;;;;7.28;2.40;;;10.70;99.90;;;;;;5034863;28;20068;-41
2023/11/08 09:58:49;;;;;;;5.80;2.42;;;10.70;99.90;;;;;;5030584;28;20048;-42
2023/11/08 10:01:18;;;;;;;5.38;2.30;;;10.80;99.90;;;;;;5035536;28;20091;-43
2023/11/08 10:03:46;;;;;;;3.80;1.90;;;10.80;99.90;;;;;;5039071;28;20121;-43
2023/11/08 10:06:14;;;;;;;3.45;2.10;;;10.90;99.90;;;;;;5036559;28;20052;-40
2023/11/08 10:08:41;;;;;;;5.97;2.40;;;10.90;99.90;;;;;;5036869;28;20050;-42
2023/11/08 10:11:14;;;;;;;5.82;2.47;;;11.00;99.90;;;;;;5037157;28;20505;-40
2023/11/08 10:13:49;;;;;;;7.15;2.63;;;11.00;99.90;;;;;;5036522;28;20064;-43
2023/11/08 10:16:17;;;;;;;6.78;2.33;;;11.10;99.90;;;;;;5027130;28;20089;-42
2023/11/08 10:18:56;;;;;;;5.70;2.30;;;11.50;99.90;;;;;;5031396;28;20068;-43
2023/11/08 10:21:50;;;;;;;9.88;2.60;;;11.70;99.90;;;;;;5034650;28;20049;-42
2023/11/08 10:24:18;;;;;;;3.30;2.25;;;11.90;99.90;;;;;;5029230;28;20045;-44
2023/11/08 10:26:46;;;;;;;4.25;2.20;;;11.90;99.90;;;;;;5028729;28;20069;-39
2023/11/08 10:29:13;;;;;;;8.02;2.80;;;11.80;99.90;;;;;;5031526;28;20041;-42
2023/11/08 10:31:42;;;;;;;7.47;2.55;;;12.00;99.90;;;;;;5026428;28;20067;-43
2023/11/08 10:34:11;;;;;;;6.47;2.70;;;12.40;99.90;;;;;;5030912;28;20080;-41
2023/11/08 10:36:39;;;;;;;6.72;2.60;;;12.50;99.90;;;;;;5030940;28;20053;-39
2023/11/08 10:39:13;;;;;;;5.03;2.55;;;11.90;99.90;;;;;;5028860;28;20033;-44
2023/11/08 10:41:43;;;;;;;5.05;2.88;;;11.70;99.90;;;;;;5022971;28;20108;-41
2023/11/08 10:44:21;;;;;;;6.80;2.80;;;11.70;99.90;;;;;;5027582;28;20705;-46
2023/11/08 10:47:00;;;;;;;5.72;2.45;;;11.50;99.90;;;;;;5029554;28;20124;-42
2023/11/08 10:49:28;;;;;;;4.25;2.30;;;11.40;99.90;;;;;;5032795;28;20036;-43
2023/11/08 10:51:56;;;;;;;5.70;2.83;;;11.10;99.90;;;;;;5029709;28;20076;-42
2023/11/08 10:54:23;;;;;;;5.90;2.70;;;10.80;99.90;;;;;;5031553;28;20045;-42
2023/11/08 10:56:52;;;;;;;4.68;2.55;;;10.70;99.90;;;;;;5031451;28;20462;-42
2023/11/08 10:59:20;;;;;;;4.28;2.78;;;10.70;99.90;;;;;;5032152;28;20061;-43
2023/11/08 11:01:48;;;;;;;3.90;2.38;;;10.90;99.90;;;;;;5032432;28;20042;-44
2023/11/08 11:04:18;;;;;;;3.63;2.60;;;11.00;99.90;;;;;;5038130;28;20043;-43
2023/11/08 11:06:48;;;;;;;7.00;2.50;;;11.30;99.90;;;;;;5034023;28;20049;-43
2023/11/08 11:09:17;;;;;;;5.18;2.80;;;11.90;99.90;;;;;;5028536;28;20099;-44
2023/11/08 11:11:50;;;;;;;9.27;3.15;;;12.60;99.90;;;;;;5034864;28;20072;-45
2023/11/08 11:14:44;;;;;;;8.23;3.10;;;13.20;99.90;;;;;;5030557;28;20071;-41
2023/11/08 11:17:43;;;;;;;5.03;3.17;;;13.50;99.90;;;;;;5038076;28;20061;-44
2023/11/08 11:20:14;;;;;;;6.07;3.08;;;14.10;99.90;;;;;;5029580;28;20055;-42
2023/11/08 11:22:42;;;;;;;6.67;3.40;;;13.60;99.90;;;;;;5041632;28;20076;-44
2023/11/08 11:25:13;;;;;;;5.55;3.05;;;13.50;99.90;;;;;;5042367;28;20038;-44
2023/11/08 11:27:42;;;;;;;5.18;3.30;;;13.70;99.90;;;;;;5037571;28;20449;-43
2023/11/08 11:30:18;;;;;;;4.65;3.30;;;12.30;99.90;;;;;;5040264;28;20576;-42
2023/11/08 11:32:48;;;;;;;6.82;2.92;;;11.90;99.90;;;;;;5040920;28;20086;-43
2023/11/08 11:35:45;;;;;;;5.15;3.20;;;11.50;99.90;;;;;;5036072;28;20041;-42
2023/11/08 11:38:24;;;;;;;6.22;2.92;;;11.10;99.90;;;;;;5018218;28;20059;-42
2023/11/08 11:41:19;;;;;;;5.07;3.65;;;11.00;99.90;;;;;;5035989;28;20065;-44
2023/11/08 11:43:51;;;;;;;5.43;3.35;;;11.00;99.90;;;;;;5034685;28;20049;-42
2023/11/08 11:46:21;;;;;;;5.93;3.15;;;10.90;99.90;;;;;;5029872;28;20045;-44
2023/11/08 11:49:11;;;;;;;3.70;3.13;;;11.40;99.90;;;;;;5028950;28;20041;-42
2023/11/08 11:51:40;;;;;;;3.58;2.97;;;12.50;99.90;;;;;;5031578;28;20146;-41
2023/11/08 11:54:07;;;;;;;6.03;3.20;;;13.20;99.90;;;;;;5032143;28;20099;-43
2023/11/08 11:56:35;;;;;;;5.00;2.95;;;14.10;99.90;;;;;;5034238;28;20060;-41
2023/11/08 11:59:02;;;;;;;4.80;2.83;;;13.90;99.90;;;;;;5034320;28;20103;-41
2023/11/08 12:01:30;;;;;;;5.03;3.47;;;13.60;99.90;;;;;;5029208;28;20136;-43
2023/11/08 12:03:58;;;;;;;5.55;3.10;;;13.00;99.90;;;;;;5031208;28;20054;-43
2023/11/08 12:06:27;;;;;;;4.57;2.95;;;12.70;99.90;;;;;;5038566;28;20457;-42
2023/11/08 12:08:55;;;;;;;6.50;3.50;;;12.40;99.90;;;;;;5034884;28;20049;-46
2023/11/08 12:11:22;;;;;;;6.50;3.10;;;12.20;99.90;;;;;;5035999;28;20046;-42
2023/11/08 12:13:54;;;;;;;4.05;2.72;;;11.90;99.90;;;;;;5029387;28;20049;-45
2023/11/08 12:16:21;;;;;;;3.60;2.70;;;11.70;99.90;;;;;;5034776;28;20184;-41
2023/11/08 12:18:50;;;;;;;3.53;2.67;;;11.40;99.90;;;;;;5032807;28;20057;-42
2023/11/08 12:21:19;;;;;;;5.00;2.80;;;11.10;99.90;;;;;;5029021;28;20065;-42
2023/11/08 12:23:49;;;;;;;4.43;3.00;;;11.10;99.90;;;;;;5033905;28;20042;-41
2023/11/08 12:26:19;;;;;;;4.78;2.78;;;11.20;99.90;;;;;;5032738;28;20052;-44
2023/11/08 12:28:46;;;;;;;4.40;2.67;;;11.20;99.90;;;;;;5032760;28;20103;-42
2023/11/08 12:31:27;;;;;;;3.60;2.47;;;11.30;99.90;;;;;;5033228;28;20068;-42
2023/11/08 12:33:58;;;;;;;4.43;2.78;;;11.20;99.90;;;;;;5033184;28;20167;-41
2023/11/08 12:36:26;;;;;;;4.68;3.00;;;11.50;99.90;;;;;;5033621;28;20051;-43
2023/11/08 12:38:53;;;;;;;3.78;2.60;;;11.50;99.90;;;;;;5033128;28;20057;-41
2023/11/08 12:41:20;;;;;;;6.05;2.80;;;11.50;99.90;;;;;;5032306;28;20092;-43
2023/11/08 12:43:58;;;;;;;3.70;2.67;;;11.50;99.90;;;;;;5029979;28;20053;-42
2023/11/08 12:46:29;;;;;;;;;;;11.30;99.90;;;;;;5030556;28;20057;-43
2023/11/08 12:49:26;;;;;;;2.97;2.60;;;11.20;99.90;;;;;;5034289;28;19929;-43
2023/11/08 12:51:55;;;;;;;4.60;2.88;;;11.00;99.90;;;;;;5036001;28;20041;-44
2023/11/08 12:54:22;;;;;;;3.97;2.55;;;11.00;99.90;;;;;;5032619;28;20095;-44
2023/11/08 12:56:49;;;;;;;4.57;2.80;;;11.90;99.90;;;;;;5032572;28;20049;-39
2023/11/08 12:59:21;;;;;;;8.55;3.10;;;12.90;99.90;;;;;;5029727;28;20061;-42
2023/11/08 13:02:05;;;;;;;9.00;3.20;;;13.80;99.90;;;;;;5033836;28;20067;-42
2023/11/08 13:04:33;;;;;;;7.28;3.47;;;14.10;99.90;;;;;;5034496;28;20061;-43